Time;durP1;ratioP1;P1;durP2;ratioP2;P2;SDS_P1;SDS_P2;PMS_P1;PMS_P2;Temp;Humidity;BMP_temperature;BMP_pressure;BME280_temperature;BME280_humidity;BME280_pressure;Samples;Min_cycle;Max_cycle;Signal;HPM_P1;HPM_P2
2023/05/10 00:08:48;;;;;;;;;;;12.90;94.60;;;;;;4981006;24;20015;-81
2023/05/10 00:11:16;;;;;;;;;;;12.70;94.50;;;;;;4836314;29;19924;-81
2023/05/10 00:14:00;;;;;;;;;;;12.90;94.50;;;;;;5454319;24;20421;-80
2023/05/10 00:16:28;;;;;;;;;;;12.90;94.70;;;;;;4796505;29;20106;-81
2023/05/10 00:18:55;;;;;;;;;;;12.60;94.80;;;;;;4828335;29;19964;-80
2023/05/10 00:21:23;;;;;;;;;;;12.70;94.90;;;;;;4801929;29;19976;-80
2023/05/10 00:23:55;;;;;;;;;;;11.40;94.70;;;;;;4817427;29;19968;-80
2023/05/10 00:26:23;;;;;;;;;;;11.90;94.90;;;;;;4809109;29;19937;-80
2023/05/10 00:28:53;;;;;;;;;;;12.60;95.20;;;;;;4804405;29;22823;-82
2023/05/10 00:31:20;;;;;;;;;;;12.60;95.40;;;;;;4788063;29;20032;-80
2023/05/10 00:33:48;;;;;;;;;;;13.60;96.10;;;;;;4818986;29;20381;-80
2023/05/10 00:36:15;;;;;;;;;;;12.60;95.90;;;;;;4790845;29;20037;-80
2023/05/10 00:38:43;;;;;;;;;;;12.50;96.00;;;;;;4805197;29;19938;-80
2023/05/10 00:41:11;;;;;;;;;;;12.30;96.30;;;;;;4807147;29;19943;-81
2023/05/10 00:43:39;;;;;;;;;;;12.40;96.70;;;;;;4789982;29;19929;-79
2023/05/10 00:46:07;;;;;;;;;;;12.40;96.90;;;;;;4805380;29;19935;-80
2023/05/10 00:48:35;;;;;;;;;;;12.40;97.00;;;;;;4802985;29;19952;-80
2023/05/10 00:51:03;;;;;;;;;;;12.40;97.10;;;;;;4802110;29;19943;-80
2023/05/10 00:53:31;;;;;;;;;;;11.80;97.10;;;;;;4803846;29;19929;-81
2023/05/10 00:55:59;;;;;;;;;;;12.50;97.20;;;;;;4802891;29;19929;-81
2023/05/10 00:58:28;;;;;;;;;;;12.50;97.40;;;;;;4781709;29;20085;-81
2023/05/10 01:00:58;;;;;;;;;;;12.40;97.50;;;;;;4767470;29;19937;-80
2023/05/10 01:03:26;;;;;;;;;;;12.40;97.70;;;;;;4770246;29;19976;-79
2023/05/10 01:05:53;;;;;;;;;;;12.00;97.70;;;;;;4765961;29;19933;-81
2023/05/10 01:08:21;;;;;;;;;;;12.40;98.20;;;;;;4769265;30;19930;-82
2023/05/10 01:10:52;;;;;;;;;;;11.10;97.70;;;;;;4768124;30;19945;-82
2023/05/10 01:13:45;;;;;;;;;;;12.30;97.80;;;;;;4779488;29;19934;-82
2023/05/10 01:16:18;;;;;;;;;;;12.50;97.80;;;;;;4776308;29;19929;-79
2023/05/10 01:18:48;;;;;;;;;;;12.50;97.90;;;;;;4780261;29;19934;-82
2023/05/10 01:21:37;;;;;;;;;;;12.30;98.00;;;;;;4776652;29;19940;-79
2023/05/10 01:24:07;;;;;;;;;;;13.30;98.40;;;;;;4770626;29;19929;-82
2023/05/10 01:26:35;;;;;;;;;;;12.40;98.20;;;;;;4783059;29;20817;-81
2023/05/10 01:29:21;;;;;;;;;;;12.50;97.90;;;;;;4789878;29;19941;-80
2023/05/10 01:31:51;;;;;;;;;;;12.40;97.90;;;;;;4784771;29;20441;-80
2023/05/10 01:34:25;;;;;;;;;;;12.50;98.20;;;;;;4781413;29;20002;-80
2023/05/10 01:36:59;;;;;;;;;;;12.50;98.00;;;;;;4791196;29;19936;-80
2023/05/10 01:39:33;;;;;;;;;;;12.50;97.90;;;;;;4768428;30;19964;-80
2023/05/10 01:42:12;;;;;;;;;;;12.60;98.10;;;;;;4779886;29;22549;-81
2023/05/10 01:45:04;;;;;;;;;;;12.90;98.20;;;;;;4770129;29;19933;-80
2023/05/10 01:47:42;;;;;;;;;;;12.50;98.10;;;;;;4762339;30;19942;-80
2023/05/10 01:50:22;;;;;;;;;;;14.10;98.50;;;;;;4765572;30;19937;-80
2023/05/10 01:52:54;;;;;;;;;;;12.60;98.00;;;;;;4765323;30;20016;-81
2023/05/10 01:55:24;;;;;;;;;;;12.60;98.00;;;;;;4767517;30;22539;-79
2023/05/10 01:58:06;;;;;;;;;;;12.40;97.90;;;;;;4768381;30;19942;-81
2023/05/10 02:00:35;;;;;;;;;;;12.50;98.00;;;;;;4789621;29;19940;-80
2023/05/10 02:03:05;;;;;;;;;;;12.60;98.00;;;;;;4778082;30;19959;-81
2023/05/10 02:05:34;;;;;;;;;;;12.70;97.60;;;;;;4763601;30;20029;-80
2023/05/10 02:08:05;;;;;;;;;;;12.50;97.20;;;;;;4782079;30;20518;-78
2023/05/10 02:10:37;;;;;;;;;;;12.60;96.40;;;;;;4776590;30;19930;-79
2023/05/10 02:13:06;;;;;;;;;;;12.50;96.40;;;;;;4772944;29;20012;-81
2023/05/10 02:15:34;;;;;;;;;;;12.60;96.10;;;;;;4774105;29;19944;-81
2023/05/10 02:18:02;;;;;;;;;;;12.60;95.90;;;;;;4780023;29;19930;-79
2023/05/10 02:20:32;;;;;;;;;;;12.70;95.90;;;;;;4776019;29;19934;-80
2023/05/10 02:32:33;;;;;;;;;;;12.60;95.80;;;;;;4871644;24;20413;-81
2023/05/10 02:47:56;;;;;;;;;;;12.40;94.80;;;;;;5108839;24;19999;-93
2023/05/10 02:50:59;;;;;;;;;;;12.50;94.90;;;;;;4839365;29;19954;-93
2023/05/10 02:58:09;;;;;;;;;;;12.40;95.00;;;;;;4793111;29;20369;-94
2023/05/10 03:01:20;;;;;;;;;;;12.40;94.90;;;;;;4829511;29;20001;-94
2023/05/10 03:04:49;;;;;;;;;;;12.50;95.20;;;;;;5022559;24;19942;-93
2023/05/10 03:35:33;;;;;;;;;;;12.30;95.20;;;;;;5502981;24;19963;-81
2023/05/10 03:38:01;;;;;;;;;;;12.20;95.20;;;;;;5249138;24;20864;-80
2023/05/10 03:40:37;;;;;;;;;;;12.20;95.10;;;;;;5769510;24;19950;31
2023/05/10 03:49:05;;;;;;;;;;;12.30;95.50;;;;;;5296225;24;19935;31
2023/05/10 04:11:07;;;;;;;;;;;12.30;96.50;;;;;;4795814;29;19930;-81
2023/05/10 04:13:35;;;;;;;;;;;13.00;96.70;;;;;;4786519;29;20025;-82
2023/05/10 04:16:05;;;;;;;;;;;12.80;96.80;;;;;;4801413;29;20039;-81
2023/05/10 04:18:32;;;;;;;;;;;12.20;96.60;;;;;;4793629;29;19935;-80
2023/05/10 04:21:02;;;;;;;;;;;12.30;97.20;;;;;;4768940;29;19929;-82
2023/05/10 04:23:31;;;;;;;;;;;12.30;97.20;;;;;;4799404;29;19977;-82
2023/05/10 04:26:00;;;;;;;;;;;12.20;96.80;;;;;;4777538;29;19933;-81
2023/05/10 04:28:27;;;;;;;;;;;12.20;96.60;;;;;;4810166;29;20346;-81
2023/05/10 04:31:03;;;;;;;;;;;12.30;96.30;;;;;;4783999;29;19954;-81
2023/05/10 04:33:34;;;;;;;;;;;12.20;96.30;;;;;;4801844;29;20016;-81
2023/05/10 04:36:04;;;;;;;;;;;12.20;96.20;;;;;;4771083;29;19940;-81
2023/05/10 04:38:33;;;;;;;;;;;12.30;96.30;;;;;;4781379;29;20036;-81
2023/05/10 04:41:07;;;;;;;;;;;12.20;96.30;;;;;;4780386;29;19929;-80
2023/05/10 04:43:35;;;;;;;;;;;12.20;96.30;;;;;;4791047;29;19952;-81
2023/05/10 04:46:02;;;;;;;;;;;11.30;95.90;;;;;;4789145;29;22854;-80
2023/05/10 04:48:29;;;;;;;;;;;12.80;96.50;;;;;;4770580;29;20020;-82
2023/05/10 04:50:57;;;;;;;;;;;12.20;95.90;;;;;;4800259;29;19937;-81
2023/05/10 04:53:24;;;;;;;;;;;12.40;95.60;;;;;;4788187;29;19938;-82
2023/05/10 04:55:54;;;;;;;;;;;12.30;95.90;;;;;;4771691;29;19930;-78
2023/05/10 04:58:22;;;;;;;;;;;12.50;95.70;;;;;;4792991;29;19929;-82
2023/05/10 05:00:51;;;;;;;;;;;12.50;95.50;;;;;;4791557;29;19973;-80
2023/05/10 05:03:21;;;;;;;;;;;12.60;95.60;;;;;;4787810;29;20069;-78
2023/05/10 05:05:49;;;;;;;;;;;14.10;95.50;;;;;;4798645;29;19961;-79
2023/05/10 05:08:19;;;;;;;;;;;12.80;95.10;;;;;;4795628;29;19937;-78
2023/05/10 05:10:47;;;;;;;;;;;12.90;94.60;;;;;;4795795;29;20171;-76
2023/05/10 05:13:14;;;;;;;;;;;13.00;94.40;;;;;;4783515;29;19929;-78
2023/05/10 05:15:42;;;;;;;;;;;13.10;94.10;;;;;;4798542;29;20044;-78
2023/05/10 05:18:09;;;;;;;;;;;13.00;94.20;;;;;;4788922;29;20412;-80
2023/05/10 05:20:36;;;;;;;;;;;13.10;94.10;;;;;;4791842;29;19929;-78
2023/05/10 05:23:03;;;;;;;;;;;13.20;93.70;;;;;;4762536;29;19938;-76
2023/05/10 05:25:31;;;;;;;;;;;13.30;93.40;;;;;;4789286;29;20002;-80
2023/05/10 05:28:01;;;;;;;;;;;13.40;93.10;;;;;;4770970;29;22737;-79
2023/05/10 05:30:31;;;;;;;;;;;13.50;92.70;;;;;;4779459;29;20029;-80
2023/05/10 05:33:00;;;;;;;;;;;13.60;92.40;;;;;;4789124;29;19929;-77
2023/05/10 05:35:27;;;;;;;;;;;13.80;92.20;;;;;;4797203;29;19933;-78
2023/05/10 05:37:54;;;;;;;;;;;14.00;92.00;;;;;;4811149;29;19929;-79
2023/05/10 05:40:25;;;;;;;;;;;14.20;91.30;;;;;;4763892;29;20374;-78
2023/05/10 05:42:52;;;;;;;;;;;14.20;90.80;;;;;;4791158;29;20372;-77
2023/05/10 05:48:26;;;;;;;;;;;14.50;90.40;;;;;;1992660;24;20914;-77
2023/05/10 05:50:56;;;;;;;;;;;14.70;89.40;;;;;;4854220;29;19939;-78
2023/05/10 05:53:24;;;;;;;;;;;14.40;88.50;;;;;;4853403;29;19928;-79
2023/05/10 05:55:52;;;;;;;;;;;14.90;88.30;;;;;;4820695;24;19937;-93
2023/05/10 05:59:00;;;;;;;;;;;15.10;89.00;;;;;;4805690;29;19933;-93
2023/05/10 06:01:48;;;;;;;;;;;14.90;88.00;;;;;;4755164;30;19934;-93
2023/05/10 06:04:52;;;;;;;;;;;15.10;88.20;;;;;;4746052;30;19937;-91
2023/05/10 06:07:31;;;;;;;;;;;15.30;87.30;;;;;;4740795;30;19930;-91
2023/05/10 06:10:02;;;;;;;;;;;15.30;86.30;;;;;;4772649;30;20040;-94
2023/05/10 06:12:52;;;;;;;;;;;15.60;85.90;;;;;;4759892;30;20021;-93
2023/05/10 06:15:24;;;;;;;;;;;15.80;85.60;;;;;;4716973;30;19934;-92
2023/05/10 06:22:22;;;;;;;;;;;15.50;87.40;;;;;;4669958;30;20009;-94
2023/05/10 06:24:49;;;;;;;;;;;15.30;89.10;;;;;;4660274;30;19939;-94
2023/05/10 06:27:20;;;;;;;;;;;15.50;88.90;;;;;;4664070;30;20738;-94
2023/05/10 06:29:56;;;;;;;;;;;15.50;89.50;;;;;;4674201;30;19936;-94
2023/05/10 06:33:10;;;;;;;;;;;15.90;88.40;;;;;;4742528;30;20001;-92
2023/05/10 06:35:54;;;;;;;;;;;16.50;86.10;;;;;;4714325;30;20002;-95
2023/05/10 06:38:44;;;;;;;;;;;16.80;82.70;;;;;;4705150;30;19939;-93
2023/05/10 06:41:19;;;;;;;;;;;16.50;81.80;;;;;;4716460;30;19930;-95
2023/05/10 06:44:32;;;;;;;;;;;16.50;81.20;;;;;;4672335;30;19959;-95
2023/05/10 06:50:44;;;;;;;;;;;16.90;79.90;;;;;;4669149;30;20013;-95
2023/05/10 06:54:20;;;;;;;;;;;16.90;78.60;;;;;;4639599;30;19923;-91
2023/05/10 06:57:21;;;;;;;;;;;16.60;79.40;;;;;;4688563;30;19931;-92
2023/05/10 07:00:40;;;;;;;;;;;16.50;80.30;;;;;;4678867;30;19935;-95
2023/05/10 07:03:00;;;;;;;;;;;16.80;80.60;;;;;;4684725;30;19939;-93
2023/05/10 07:06:01;;;;;;;;;;;16.60;79.40;;;;;;4679403;30;19946;-94
2023/05/10 07:09:24;;;;;;;;;;;16.60;80.40;;;;;;4702382;30;19934;-96
2023/05/10 07:15:59;;;;;;;;;;;17.50;77.80;;;;;;4693948;30;20095;-96
2023/05/10 07:18:29;;;;;;;;;;;17.20;76.80;;;;;;4688720;30;19935;-90
2023/05/10 07:20:57;;;;;;;;;;;17.50;77.70;;;;;;4727265;29;19937;-87
2023/05/10 07:23:39;;;;;;;;;;;17.70;76.30;;;;;;4763809;29;20508;-90
2023/05/10 07:26:11;;;;;;;;;;;17.80;76.20;;;;;;4771272;29;19945;-91
2023/05/10 07:28:45;;;;;;;;;;;17.30;76.80;;;;;;4774321;29;20257;-95
2023/05/10 07:32:26;;;;;;;;;;;17.70;77.70;;;;;;4764495;29;19937;-96
2023/05/10 07:34:58;;;;;;;;;;;17.40;77.00;;;;;;4805194;24;19986;-94
2023/05/10 07:41:04;;;;;;;;;;;18.10;74.80;;;;;;4770945;29;19937;-94
2023/05/10 07:50:46;;;;;;;;;;;17.30;76.40;;;;;;4812985;29;20522;-79
2023/05/10 07:53:33;;;;;;;;;;;17.40;76.40;;;;;;4797940;29;20005;-78
2023/05/10 07:56:19;;;;;;;;;;;18.40;74.80;;;;;;4792990;29;19937;-79
2023/05/10 07:58:47;;;;;;;;;;;18.30;73.90;;;;;;4814330;29;19932;-77
2023/05/10 08:04:05;;;;;;;;;;;18.30;73.90;;;;;;4806831;29;19933;-80
2023/05/10 08:06:33;;;;;;;;;;;17.60;76.10;;;;;;4805192;29;19933;-77
2023/05/10 08:09:01;;;;;;;;;;;17.70;75.70;;;;;;4813941;29;19933;-80
2023/05/10 08:11:33;;;;;;;;;;;17.50;75.60;;;;;;4808876;29;19954;-79
2023/05/10 08:14:01;;;;;;;;;;;16.90;75.90;;;;;;4803483;29;22650;-81
2023/05/10 08:16:48;;;;;;;;;;;17.20;76.80;;;;;;4809411;29;19936;-81
2023/05/10 08:19:19;;;;;;;;;;;17.40;75.40;;;;;;4830735;29;19984;-81
2023/05/10 08:21:47;;;;;;;;;;;17.80;76.00;;;;;;4836272;29;19928;-80
2023/05/10 08:27:11;;;;;;;;;;;17.50;75.30;;;;;;4849368;29;20407;-80
2023/05/10 08:29:38;;;;;;;;;;;17.40;76.40;;;;;;4828106;29;19929;-80
2023/05/10 08:32:22;;;;;;;;;;;17.90;75.70;;;;;;4839727;29;19936;-79
2023/05/10 08:34:49;;;;;;;;;;;18.00;75.00;;;;;;4824702;29;19988;-80
2023/05/10 08:37:17;;;;;;;;;;;17.70;75.10;;;;;;4851337;29;22774;-80
2023/05/10 08:39:47;;;;;;;;;;;17.60;76.60;;;;;;4841668;29;19938;-80
2023/05/10 08:42:16;;;;;;;;;;;18.10;75.90;;;;;;4848919;29;19952;-79
2023/05/10 08:44:43;;;;;;;;;;;17.20;75.10;;;;;;4850351;29;19932;-79
2023/05/10 08:47:16;;;;;;;;;;;17.40;76.70;;;;;;4838501;29;19974;-80
2023/05/10 08:49:47;;;;;;;;;;;17.10;76.30;;;;;;4849275;29;19936;-77
2023/05/10 08:52:15;;;;;;;;;;;17.10;77.40;;;;;;4850919;29;20004;-77
2023/05/10 08:55:14;;;;;;;;;;;17.10;77.40;;;;;;4943682;24;19957;-81
2023/05/10 08:57:45;;;;;;;;;;;17.20;77.10;;;;;;4845902;29;19928;-80
2023/05/10 09:00:16;;;;;;;;;;;17.60;74.60;;;;;;4856475;29;19913;-81
2023/05/10 09:02:55;;;;;;;;;;;17.50;74.30;;;;;;4863734;24;19911;-95
2023/05/10 09:09:26;;;;;;;;;;;18.30;75.10;;;;;;4814917;29;19944;-96
2023/05/10 09:13:17;;;;;;;;;;;17.70;74.50;;;;;;4824070;29;19955;-95
2023/05/10 09:16:00;;;;;;;;;;;17.60;74.50;;;;;;4815225;29;20020;-92
2023/05/10 09:19:06;;;;;;;;;;;18.20;73.90;;;;;;4825920;29;19935;-96
2023/05/10 09:22:06;;;;;;;;;;;18.50;73.20;;;;;;4768005;29;19995;-95
2023/05/10 09:24:33;;;;;;;;;;;18.10;72.80;;;;;;4786175;29;19926;-94
2023/05/10 09:27:27;;;;;;;;;;;17.90;74.10;;;;;;4774571;29;19938;-92
2023/05/10 09:30:42;;;;;;;;;;;17.70;73.10;;;;;;4766342;30;19929;-96
2023/05/10 09:33:53;;;;;;;;;;;17.40;74.00;;;;;;4764928;30;19930;-92
2023/05/10 09:36:24;;;;;;;;;;;17.70;74.30;;;;;;4767077;29;20011;-93
2023/05/10 09:39:10;;;;;;;;;;;18.20;73.30;;;;;;4737987;30;19938;-93
2023/05/10 09:41:55;;;;;;;;;;;18.40;73.40;;;;;;4717116;30;19982;-93
2023/05/10 09:44:53;;;;;;;;;;;18.60;72.40;;;;;;4703773;30;19938;-91
2023/05/10 09:47:31;;;;;;;;;;;18.30;71.50;;;;;;4760018;30;20478;-96
2023/05/10 09:50:35;;;;;;;;;;;18.80;71.40;;;;;;4715394;30;19938;-96
2023/05/10 09:53:52;;;;;;;;;;;18.40;71.10;;;;;;4713268;30;19939;-95
2023/05/10 09:56:54;;;;;;;;;;;18.40;71.30;;;;;;4711111;30;19935;-93
2023/05/10 09:59:42;;;;;;;;;;;18.40;72.10;;;;;;4719799;30;20021;-95
2023/05/10 10:02:32;;;;;;;;;;;18.40;71.30;;;;;;4693064;30;19946;-93
2023/05/10 10:06:05;;;;;;;;;;;18.30;69.90;;;;;;4676327;30;19945;-95
2023/05/10 10:08:59;;;;;;;;;;;18.60;69.20;;;;;;4699676;30;19940;-93
2023/05/10 10:12:13;;;;;;;;;;;18.30;69.10;;;;;;4697398;30;21963;-90
2023/05/10 10:15:30;;;;;;;;;;;18.30;69.20;;;;;;4689355;30;20072;-95
2023/05/10 10:18:12;;;;;;;;;;;17.90;67.90;;;;;;4712028;30;20151;-92
2023/05/10 10:20:40;;;;;;;;;;;18.90;68.00;;;;;;4762451;30;20024;-93
2023/05/10 10:23:31;;;;;;;;;;;19.10;66.70;;;;;;4754376;29;19930;-84
2023/05/10 10:26:22;;;;;;;;;;;18.80;66.10;;;;;;4775205;29;19937;-91
2023/05/10 10:28:50;;;;;;;;;;;18.60;65.70;;;;;;4780613;29;19940;-95
2023/05/10 10:31:51;;;;;;;;;;;;;;;;;;;;;
2023/05/10 10:35:20;;;;;;;;;;;18.40;68.10;;;;;;4790555;29;20749;-96
2023/05/10 10:37:52;;;;;;;;;;;18.50;68.40;;;;;;4791604;29;20031;-95
2023/05/10 10:40:43;;;;;;;;;;;18.40;68.20;;;;;;4788206;29;19937;-94
2023/05/10 10:44:18;;;;;;;;;;;18.30;69.00;;;;;;4793308;29;19937;-95
2023/05/10 10:51:16;;;;;;;;;;;19.00;68.10;;;;;;4724921;30;19992;-89
2023/05/10 10:57:35;;;;;;;;;;;18.50;66.60;;;;;;4729376;30;19991;-92
2023/05/10 11:00:33;;;;;;;;;;;18.40;67.20;;;;;;4748939;30;19963;-93
2023/05/10 11:03:28;;;;;;;;;;;18.30;67.50;;;;;;4694482;30;19942;-96
2023/05/10 11:09:59;;;;;;;;;;;18.60;66.90;;;;;;4666932;30;19923;-91
2023/05/10 11:13:13;;;;;;;;;;;18.50;65.70;;;;;;4618476;30;19999;-92
2023/05/10 11:23:55;;;;;;;;;;;18.80;65.00;;;;;;4651987;30;19931;-94
2023/05/10 11:26:32;;;;;;;;;;;18.70;65.80;;;;;;4629669;30;20002;-92
2023/05/10 11:29:11;;;;;;;;;;;18.60;65.50;;;;;;4747135;30;20825;-91
2023/05/10 11:36:29;;;;;;;;;;;18.60;66.10;;;;;;4671568;30;19934;-95
2023/05/10 11:39:36;;;;;;;;;;;18.70;64.80;;;;;;4722106;30;19925;-96
2023/05/10 11:42:45;;;;;;;;;;;;;;;;;;;;;
2023/05/10 11:46:13;;;;;;;;;;;19.60;64.60;;;;;;4709099;30;19937;-95
2023/05/10 11:48:56;;;;;;;;;;;19.40;63.20;;;;;;4661077;30;19955;-96
2023/05/10 11:54:11;;;;;;;;;;;19.80;64.20;;;;;;4817982;29;19928;-79
2023/05/10 11:56:39;;;;;;;;;;;19.50;64.20;;;;;;4843447;29;19936;-79
2023/05/10 11:59:07;;;;;;;;;;;19.20;63.60;;;;;;4810357;29;19992;-80
2023/05/10 12:01:48;;;;;;;;;;;19.00;64.00;;;;;;4843725;29;19968;-80
2023/05/10 12:04:15;;;;;;;;;;;18.90;65.50;;;;;;4842470;29;19932;-80
2023/05/10 12:06:44;;;;;;;;;;;18.90;65.10;;;;;;4849409;29;19912;-79
2023/05/10 12:09:12;;;;;;;;;;;19.10;64.90;;;;;;4847151;29;20431;-80
2023/05/10 12:11:40;;;;;;;;;;;19.10;65.10;;;;;;4845232;29;19928;-77
2023/05/10 12:14:11;;;;;;;;;;;19.20;64.40;;;;;;4828835;29;19936;-80
2023/05/10 12:16:38;;;;;;;;;;;19.00;64.20;;;;;;4849316;29;19929;-80
2023/05/10 12:19:06;;;;;;;;;;;19.10;64.10;;;;;;4889497;23;19953;-79
2023/05/10 12:21:33;;;;;;;;;;;19.20;64.10;;;;;;4848957;29;20035;-78
2023/05/10 12:24:04;;;;;;;;;;;19.10;64.00;;;;;;4855383;29;19960;-80
2023/05/10 12:26:31;;;;;;;;;;;18.90;62.80;;;;;;4845733;29;20015;-77
2023/05/10 12:29:25;;;;;;;;;;;19.00;63.00;;;;;;4857072;29;19935;-79
2023/05/10 12:32:11;;;;;;;;;;;19.10;62.60;;;;;;4849490;29;19916;-79
2023/05/10 12:34:38;;;;;;;;;;;19.30;63.60;;;;;;4857662;29;19977;-80
2023/05/10 12:37:07;;;;;;;;;;;19.30;63.40;;;;;;4851275;29;22711;-80
2023/05/10 12:39:42;;;;;;;;;;;19.20;62.80;;;;;;4868856;29;19940;-79
2023/05/10 12:42:13;;;;;;;;;;;19.30;63.40;;;;;;4864936;29;19988;-79
2023/05/10 12:44:40;;;;;;;;;;;19.40;62.40;;;;;;4885676;29;19936;-79
2023/05/10 12:47:07;;;;;;;;;;;19.40;62.60;;;;;;4880848;29;19936;-79
2023/05/10 12:49:34;;;;;;;;;;;19.40;62.50;;;;;;4866448;29;19957;-80
2023/05/10 12:52:03;;;;;;;;;;;19.50;62.70;;;;;;4893170;24;22635;-79
2023/05/10 12:54:30;;;;;;;;;;;19.40;62.30;;;;;;4864256;29;19928;-79
2023/05/10 12:56:57;;;;;;;;;;;19.30;63.00;;;;;;4855053;29;20023;-79
2023/05/10 12:59:25;;;;;;;;;;;19.40;62.10;;;;;;4830374;29;20448;-79
2023/05/10 13:01:52;;;;;;;;;;;19.50;61.40;;;;;;4850419;29;19943;-79
2023/05/10 13:04:19;;;;;;;;;;;19.60;62.60;;;;;;4833051;29;22632;-79
2023/05/10 13:06:46;;;;;;;;;;;19.70;61.20;;;;;;4829167;29;19935;-79
2023/05/10 13:09:18;;;;;;;;;;;19.60;60.90;;;;;;4852134;29;19934;-79
2023/05/10 13:11:49;;;;;;;;;;;19.60;60.60;;;;;;4862321;29;19916;-79
2023/05/10 13:14:20;;;;;;;;;;;19.60;59.80;;;;;;4822387;29;22696;-78
2023/05/10 13:16:48;;;;;;;;;;;19.60;60.60;;;;;;4834360;29;19928;-77
2023/05/10 13:19:17;;;;;;;;;;;19.90;60.70;;;;;;4838335;29;19944;-78
2023/05/10 13:21:47;;;;;;;;;;;19.90;60.00;;;;;;4823615;29;19928;-79
2023/05/10 13:24:17;;;;;;;;;;;19.60;59.40;;;;;;4810144;29;19944;-79
2023/05/10 13:26:47;;;;;;;;;;;19.50;59.80;;;;;;4813406;29;19928;-79
2023/05/10 13:29:15;;;;;;;;;;;19.50;60.20;;;;;;4818409;29;19929;-79
2023/05/10 13:31:44;;;;;;;;;;;19.50;60.40;;;;;;4803651;29;19940;-79
2023/05/10 13:34:12;;;;;;;;;;;19.70;60.10;;;;;;4817358;29;19935;-79
2023/05/10 13:36:44;;;;;;;;;;;19.70;59.30;;;;;;4825996;29;19919;-79
2023/05/10 13:39:11;;;;;;;;;;;20.00;59.50;;;;;;4799879;29;19947;-79
2023/05/10 13:41:41;;;;;;;;;;;20.10;58.80;;;;;;4801347;29;19937;-79
2023/05/10 13:44:09;;;;;;;;;;;20.30;58.60;;;;;;4817136;29;19933;-79
2023/05/10 13:49:59;;;;;;;;;;;20.70;58.10;;;;;;4742674;30;19930;-94
2023/05/10 13:56:47;;;;;;;;;;;20.60;57.10;;;;;;4760761;30;19953;-96
2023/05/10 14:00:03;;;;;;;;;;;20.60;57.70;;;;;;4733732;30;19985;-89
2023/05/10 14:06:15;;;;;;;;;;;20.10;57.50;;;;;;4755970;30;20503;-91
2023/05/10 14:09:21;;;;;;;;;;;20.30;57.90;;;;;;4669220;30;19963;-95
2023/05/10 14:12:16;;;;;;;;;;;19.90;57.00;;;;;;4643722;30;20507;-94
2023/05/10 14:15:43;;;;;;;;;;;20.30;56.90;;;;;;4599203;31;19989;-93
2023/05/10 14:21:47;;;;;;;;;;;20.30;56.60;;;;;;4579294;31;19929;-95
2023/05/10 14:24:46;;;;;;;;;;;20.40;57.30;;;;;;4596236;30;19927;-92
2023/05/10 14:27:23;;;;;;;;;;;20.20;56.90;;;;;;4583492;31;19930;-96
2023/05/10 14:29:53;;;;;;;;;;;20.00;56.80;;;;;;4596638;30;19931;-96
2023/05/10 14:33:01;;;;;;;;;;;;;;;;;;;;;
2023/05/10 14:40:42;;;;;;;;;;;20.10;58.10;;;;;;4612318;30;19923;-95
2023/05/10 14:43:42;;;;;;;;;;;19.80;58.30;;;;;;5085785;27;19926;-77
2023/05/10 14:46:09;;;;;;;;;;;19.50;58.30;;;;;;5092612;28;20947;-80
2023/05/10 14:48:37;;;;;;;;;;;19.50;59.30;;;;;;5097568;28;20036;-80
2023/05/10 14:51:04;;;;;;;;;;;19.50;59.10;;;;;;5093637;28;19939;-78
2023/05/10 14:53:31;;;;;;;;;;;19.40;58.70;;;;;;5112129;27;20015;-80
2023/05/10 14:56:01;;;;;;;;;;;19.30;58.20;;;;;;5099899;28;19938;-81
2023/05/10 14:58:51;;;;;;;;;;;19.20;58.10;;;;;;5038244;28;19929;-80
2023/05/10 15:01:19;;;;;;;;;;;19.10;57.70;;;;;;5045433;28;19933;-80
2023/05/10 15:03:47;;;;;;;;;;;19.00;57.40;;;;;;5060728;28;19987;-81
2023/05/10 15:06:35;;;;;;;;;;;19.10;57.70;;;;;;5038092;28;19925;-79
2023/05/10 15:09:03;;;;;;;;;;;19.10;57.70;;;;;;5007965;28;19929;-78
2023/05/10 15:11:31;;;;;;;;;;;19.00;57.90;;;;;;4989464;28;19989;-80
2023/05/10 15:14:03;;;;;;;;;;;19.10;57.80;;;;;;5020580;28;20367;-81
2023/05/10 15:16:30;;;;;;;;;;;19.00;57.50;;;;;;5016283;28;19941;-79
2023/05/10 15:19:02;;;;;;;;;;;19.00;57.70;;;;;;5014262;28;19933;-80
2023/05/10 15:21:34;;;;;;;;;;;19.00;57.30;;;;;;5008186;28;19929;-77
2023/05/10 15:24:02;;;;;;;;;;;19.10;57.40;;;;;;5025880;28;19932;-81
2023/05/10 15:26:53;;;;;;;;;;;19.10;57.80;;;;;;5003770;28;19926;-79
2023/05/10 15:29:21;;;;;;;;;;;19.00;57.50;;;;;;5016011;28;19956;-80
2023/05/10 15:31:49;;;;;;;;;;;19.00;57.80;;;;;;5009852;28;19925;-79
2023/05/10 15:34:21;;;;;;;;;;;19.10;58.10;;;;;;5002586;28;19981;-80
2023/05/10 15:36:51;;;;;;;;;;;19.20;58.00;;;;;;5005592;28;19940;-80
2023/05/10 15:39:20;;;;;;;;;;;19.30;58.20;;;;;;5026171;28;19925;-79
2023/05/10 15:41:47;;;;;;;;;;;19.30;57.80;;;;;;5039628;28;20991;-79
2023/05/10 15:44:16;;;;;;;;;;;19.20;58.00;;;;;;5015309;28;19937;-80
2023/05/10 15:46:53;;;;;;;;;;;19.00;57.60;;;;;;5011399;28;19956;-79
2023/05/10 15:49:20;;;;;;;;;;;19.10;57.50;;;;;;5276460;22;19932;-77
2023/05/10 15:51:47;;;;;;;;;;;19.00;58.00;;;;;;5070125;28;19936;-79
2023/05/10 15:54:21;;;;;;;;;;;19.00;58.60;;;;;;5107154;22;20324;-79
2023/05/10 15:56:56;;;;;;;;;;;18.90;58.60;;;;;;5087014;22;20018;-79
2023/05/10 15:59:23;;;;;;;;;;;18.80;58.30;;;;;;5057545;28;19956;-80
2023/05/10 16:01:50;;;;;;;;;;;18.70;58.40;;;;;;5073117;28;19925;-79
2023/05/10 16:04:18;;;;;;;;;;;18.70;58.20;;;;;;5062298;28;19928;-79
2023/05/10 16:06:45;;;;;;;;;;;18.60;57.90;;;;;;5065713;28;20038;-80
2023/05/10 16:09:14;;;;;;;;;;;18.60;58.50;;;;;;5124237;22;20430;-79
2023/05/10 16:11:42;;;;;;;;;;;18.50;58.80;;;;;;5088324;22;20846;-79
2023/05/10 16:14:10;;;;;;;;;;;18.50;57.90;;;;;;5040582;28;19956;-79
2023/05/10 16:16:38;;;;;;;;;;;18.50;57.80;;;;;;5051628;28;20020;-79
2023/05/10 16:19:06;;;;;;;;;;;18.50;58.20;;;;;;5041957;28;20283;-78
2023/05/10 16:21:35;;;;;;;;;;;18.40;58.40;;;;;;5058985;28;19925;-80
2023/05/10 16:24:20;;;;;;;;;;;18.50;58.60;;;;;;5056498;28;19986;-80
2023/05/10 16:26:47;;;;;;;;;;;18.40;58.70;;;;;;5044235;28;20399;-80
2023/05/10 16:29:16;;;;;;;;;;;18.40;58.50;;;;;;5031157;28;20019;-78
2023/05/10 16:31:43;;;;;;;;;;;18.20;58.90;;;;;;5068243;28;19960;-79
2023/05/10 16:34:10;;;;;;;;;;;19.40;59.60;;;;;;5091127;22;19915;-77
2023/05/10 16:36:38;;;;;;;;;;;18.30;59.10;;;;;;5152204;22;19925;-79
2023/05/10 16:39:05;;;;;;;;;;;18.30;59.80;;;;;;5032217;28;19929;-77
2023/05/10 16:41:39;;;;;;;;;;;18.30;60.90;;;;;;5055275;22;19924;-79
2023/05/10 16:44:06;;;;;;;;;;;18.20;61.80;;;;;;5245471;22;20343;-78
2023/05/10 16:46:33;;;;;;;;;;;18.20;63.10;;;;;;5049030;28;19928;-79
2023/05/10 16:49:01;;;;;;;;;;;18.10;62.60;;;;;;5021375;28;19925;-77
2023/05/10 16:51:28;;;;;;;;;;;18.10;62.40;;;;;;5056558;28;19924;-79
2023/05/10 16:53:55;;;;;;;;;;;18.00;62.50;;;;;;5049764;28;19932;-78
2023/05/10 16:59:27;;;;;;;;;;;18.00;62.50;;;;;;4951679;28;20300;-77
2023/05/10 17:01:55;;;;;;;;;;;17.90;62.50;;;;;;4959051;28;19927;-79
2023/05/10 17:04:24;;;;;;;;;;;17.90;62.60;;;;;;4972053;28;19940;-79
2023/05/10 17:06:51;;;;;;;;;;;17.80;62.60;;;;;;4959842;28;19927;-78
2023/05/10 17:09:19;;;;;;;;;;;17.90;63.00;;;;;;4957538;28;19934;-79
2023/05/10 17:11:46;;;;;;;;;;;17.80;62.20;;;;;;4967780;28;19926;-79
2023/05/10 17:14:13;;;;;;;;;;;17.80;62.70;;;;;;5092340;23;19927;-79
2023/05/10 17:16:47;;;;;;;;;;;17.80;62.90;;;;;;4966643;28;19934;-80
2023/05/10 17:19:16;;;;;;;;;;;17.80;63.20;;;;;;4950934;28;19926;-79
2023/05/10 17:21:43;;;;;;;;;;;17.70;63.20;;;;;;5005837;23;19910;-79
2023/05/10 17:24:12;;;;;;;;;;;17.60;63.40;;;;;;5074803;23;19912;-79
2023/05/10 17:26:41;;;;;;;;;;;17.60;63.60;;;;;;5077588;23;19933;-79
2023/05/10 17:29:38;;;;;;;;;;;17.60;63.90;;;;;;4979116;28;19930;-78
2023/05/10 17:32:07;;;;;;;;;;;17.50;64.30;;;;;;5024863;23;19910;-78
2023/05/10 17:34:35;;;;;;;;;;;16.70;64.00;;;;;;4942408;28;20074;-79
2023/05/10 17:37:04;;;;;;;;;;;17.40;64.80;;;;;;5062818;23;19934;-78
2023/05/10 17:39:32;;;;;;;;;;;17.30;65.10;;;;;;5055433;23;19926;-79
2023/05/10 17:42:00;;;;;;;;;;;17.30;65.80;;;;;;4996010;23;19934;-96
2023/05/10 17:44:27;;;;;;;;;;;18.00;66.40;;;;;;4981326;28;19957;-96
2023/05/10 17:46:59;;;;;;;;;;;17.50;66.60;;;;;;5101503;23;19922;-96
2023/05/10 17:56:30;;;;;;;;;;;17.00;68.00;;;;;;5168777;23;19926;-79
2023/05/10 17:59:04;;;;;;;;;;;16.90;68.20;;;;;;5049803;23;19911;-96
2023/05/10 18:02:02;;;;;;;;;;;16.90;68.50;;;;;;4954221;23;20141;-96
2023/05/10 18:04:48;;;;;;;;;;;16.90;68.80;;;;;;4905855;29;19942;-96
2023/05/10 18:07:19;;;;;;;;;;;16.80;69.10;;;;;;4928914;29;19931;-96
2023/05/10 18:09:46;;;;;;;;;;;16.80;69.60;;;;;;4907529;29;19931;-93
2023/05/10 18:12:14;;;;;;;;;;;16.70;69.50;;;;;;4926486;28;19961;-96
2023/05/10 18:14:49;;;;;;;;;;;16.70;69.50;;;;;;4925292;29;19922;-91
2023/05/10 18:17:19;;;;;;;;;;;16.70;69.50;;;;;;4926204;29;19942;-96